createdAt,value
2019-05-20T00:01:35.783Z,53.67
2019-05-20T00:04:03.833Z,58.00
2019-05-20T00:06:31.969Z,47.37
2019-05-20T00:08:59.983Z,48.27
2019-05-20T00:11:28.170Z,52.80
2019-05-20T00:13:56.289Z,45.03
2019-05-20T00:16:24.414Z,52.23
2019-05-20T00:18:52.581Z,50.50
2019-05-20T00:21:20.940Z,53.53
2019-05-20T00:23:49.172Z,48.87
2019-05-20T00:26:17.347Z,44.63
2019-05-20T00:28:45.600Z,43.83
2019-05-20T00:31:13.906Z,39.50
2019-05-20T00:33:43.242Z,38.20
2019-05-20T00:36:11.269Z,38.47
2019-05-20T00:38:39.451Z,37.77
2019-05-20T00:41:07.666Z,34.07
2019-05-20T00:43:35.863Z,37.63
2019-05-20T00:46:04.056Z,33.73
2019-05-20T00:48:32.090Z,30.80
2019-05-20T00:51:00.215Z,35.23
2019-05-20T00:53:28.591Z,36.27
2019-05-20T00:55:56.955Z,39.90
2019-05-20T00:58:25.083Z,36.13
2019-05-20T01:00:53.146Z,36.23
2019-05-20T01:03:21.334Z,39.90
2019-05-20T01:05:49.427Z,38.80
2019-05-20T01:08:17.493Z,38.50
2019-05-20T01:10:45.515Z,43.50
2019-05-20T01:13:13.556Z,38.33
2019-05-20T01:15:41.653Z,37.77
2019-05-20T01:18:09.891Z,36.20
2019-05-20T01:20:38.009Z,34.70
2019-05-20T01:23:06.099Z,38.20
2019-05-20T01:25:34.176Z,37.77
2019-05-20T01:28:02.486Z,39.00
2019-05-20T01:30:30.608Z,45.73
2019-05-20T01:33:12.836Z,40.77
2019-05-20T01:35:28.870Z,43.67
2019-05-20T01:37:56.897Z,43.53
2019-05-20T01:40:24.976Z,52.77
2019-05-20T01:42:53.006Z,43.67
2019-05-20T01:45:22.169Z,42.37
2019-05-20T01:47:50.239Z,43.47
2019-05-20T01:50:18.312Z,36.93
2019-05-20T01:52:46.361Z,39.70
2019-05-20T01:55:14.539Z,42.00
2019-05-20T01:57:42.815Z,40.50
2019-05-20T02:00:11.266Z,46.53
2019-05-20T02:02:39.396Z,38.90
2019-05-20T02:05:07.917Z,40.30
2019-05-20T02:07:36.086Z,48.03
2019-05-20T02:10:05.754Z,42.20
2019-05-20T02:12:33.876Z,44.20
2019-05-20T02:15:10.907Z,50.30
2019-05-20T02:17:39.067Z,39.90
2019-05-20T02:20:07.170Z,53.63
2019-05-20T02:22:35.431Z,44.37
2019-05-20T02:25:04.072Z,40.33
2019-05-20T02:27:32.171Z,40.30
2019-05-20T02:30:00.312Z,36.03
2019-05-20T02:32:28.537Z,37.70
2019-05-20T02:34:56.593Z,35.00
2019-05-20T02:37:24.790Z,33.90
2019-05-20T02:39:52.912Z,39.23
2019-05-20T02:42:20.975Z,40.80
2019-05-20T02:44:49.196Z,36.63
2019-05-20T02:47:20.287Z,36.33
2019-05-20T02:49:48.679Z,37.33
2019-05-20T02:52:16.821Z,44.87
2019-05-20T02:54:44.860Z,45.73
2019-05-20T02:57:12.952Z,34.10
2019-05-20T02:59:41.104Z,35.03
2019-05-20T03:02:09.242Z,56.30
2019-05-20T03:04:37.434Z,41.80
2019-05-20T03:07:05.561Z,46.87
2019-05-20T03:09:33.663Z,69.07
2019-05-20T03:12:01.799Z,49.13
2019-05-20T03:14:30.004Z,48.43
2019-05-20T03:16:59.086Z,46.33
2019-05-20T03:19:27.131Z,62.67
2019-05-20T03:21:55.385Z,51.17
2019-05-20T03:24:23.717Z,83.87
2019-05-20T03:26:51.777Z,74.07
2019-05-20T03:29:20.125Z,60.93
2019-05-20T03:31:48.245Z,51.80
2019-05-20T03:34:42.187Z,38.80
2019-05-20T03:36:46.324Z,48.67
2019-05-20T03:39:14.423Z,57.53
2019-05-20T03:41:42.777Z,53.97
2019-05-20T03:44:10.880Z,43.80
2019-05-20T03:46:38.904Z,40.23
2019-05-20T03:49:06.973Z,49.10
2019-05-20T03:51:35.043Z,43.47
2019-05-20T03:54:03.227Z,40.03
2019-05-20T03:56:31.325Z,59.53
2019-05-20T03:58:59.379Z,56.37
2019-05-20T04:01:27.410Z,52.10
2019-05-20T04:03:55.646Z,77.03
2019-05-20T04:06:23.935Z,38.00
2019-05-20T04:08:52.113Z,55.13
2019-05-20T04:11:20.191Z,44.57
2019-05-20T04:13:48.282Z,51.97
2019-05-20T04:16:16.399Z,38.87
2019-05-20T04:18:44.575Z,41.23
2019-05-20T04:21:12.717Z,32.03
2019-05-20T04:23:40.909Z,38.63
2019-05-20T04:26:09.089Z,52.80
2019-05-20T04:28:37.483Z,42.67
2019-05-20T04:31:05.785Z,54.27
2019-05-20T04:33:33.950Z,43.23
2019-05-20T04:36:02.100Z,43.87
2019-05-20T04:38:30.191Z,44.33
2019-05-20T04:40:58.227Z,42.17
2019-05-20T04:43:26.470Z,40.73
2019-05-20T04:45:54.693Z,42.73
2019-05-20T04:48:22.787Z,31.40
2019-05-20T04:50:51.043Z,34.13
2019-05-20T04:53:19.159Z,29.20
2019-05-20T04:55:47.295Z,47.27
2019-05-20T04:58:15.527Z,30.23
2019-05-20T05:00:52.505Z,26.33
2019-05-20T05:03:21.135Z,28.23
2019-05-20T05:05:50.341Z,33.07
2019-05-20T05:08:19.344Z,28.70
2019-05-20T05:10:47.684Z,29.00
2019-05-20T05:13:15.909Z,46.43
2019-05-20T05:15:44.190Z,25.87
2019-05-20T05:18:12.484Z,32.33
2019-05-20T05:20:40.788Z,35.17
2019-05-20T05:23:09.223Z,40.47
2019-05-20T05:25:37.452Z,28.53
2019-05-20T05:28:06.147Z,26.00
2019-05-20T05:30:35.113Z,27.23
2019-05-20T05:33:03.295Z,31.50
2019-05-20T05:35:31.519Z,38.33
2019-05-20T05:37:59.990Z,24.80
2019-05-20T05:40:30.386Z,27.87
2019-05-20T05:42:58.641Z,24.53
2019-05-20T05:45:31.347Z,25.20
2019-05-20T05:47:59.496Z,24.00
2019-05-20T05:50:27.756Z,23.20
2019-05-20T05:52:56.195Z,27.03
2019-05-20T05:55:24.509Z,23.83
2019-05-20T05:57:52.874Z,27.97
2019-05-20T06:00:22.283Z,27.90
2019-05-20T06:02:51.345Z,26.97
2019-05-20T06:05:19.612Z,23.23
2019-05-20T06:07:47.635Z,23.47
2019-05-20T06:10:15.873Z,24.03
2019-05-20T06:12:44.138Z,22.03
2019-05-20T06:15:13.803Z,20.90
2019-05-20T06:17:42.012Z,21.40
2019-05-20T06:20:10.838Z,21.63
2019-05-20T06:25:27.709Z,19.87
2019-05-20T06:27:56.174Z,19.60
2019-05-20T06:30:38.078Z,17.97
2019-05-20T06:33:06.384Z,18.20
2019-05-20T06:35:35.848Z,18.90
2019-05-20T06:38:06.694Z,17.10
2019-05-20T06:40:35.915Z,17.63
2019-05-20T06:43:04.455Z,16.43
2019-05-20T06:45:32.821Z,17.60
2019-05-20T06:48:00.981Z,15.93
2019-05-20T06:50:29.840Z,16.00
2019-05-20T06:52:58.387Z,15.10
2019-05-20T06:55:26.400Z,13.43
2019-05-20T06:57:54.592Z,14.60
2019-05-20T07:00:33.734Z,15.00
2019-05-20T07:03:02.235Z,14.00
2019-05-20T07:05:30.360Z,14.33
2019-05-20T07:08:01.433Z,15.77
2019-05-20T07:10:29.887Z,13.50
2019-05-20T07:12:58.094Z,15.57
2019-05-20T07:15:26.264Z,15.33
2019-05-20T07:17:54.361Z,18.00
2019-05-20T07:20:22.638Z,15.83
2019-05-20T07:22:55.651Z,15.67
2019-05-20T07:25:20.929Z,15.67
2019-05-20T07:27:49.375Z,17.20
2019-05-20T07:30:18.166Z,15.73
2019-05-20T07:32:46.405Z,15.37
2019-05-20T07:35:28.653Z,14.87
2019-05-20T07:37:44.990Z,15.30
2019-05-20T07:40:17.331Z,14.87
2019-05-20T07:42:45.613Z,14.93
2019-05-20T07:45:13.881Z,15.17
2019-05-20T07:47:42.468Z,14.20
2019-05-20T07:50:11.621Z,16.10
2019-05-20T07:52:40.167Z,17.10
2019-05-20T07:55:08.517Z,15.43
2019-05-20T07:57:40.126Z,13.93
2019-05-20T08:00:09.095Z,15.20
2019-05-20T08:02:37.801Z,14.67
2019-05-20T08:05:06.751Z,13.87
2019-05-20T08:07:50.359Z,15.47
2019-05-20T08:10:06.161Z,13.57
2019-05-20T08:12:34.444Z,15.13
2019-05-20T08:15:03.207Z,15.53
2019-05-20T08:17:31.351Z,15.43
2019-05-20T08:19:59.506Z,14.50
2019-05-20T08:22:27.647Z,15.23
2019-05-20T08:24:55.623Z,15.03
2019-05-20T08:27:23.703Z,13.97
2019-05-20T08:29:51.801Z,13.10
2019-05-20T08:32:19.992Z,13.87
2019-05-20T08:34:48.231Z,14.97
2019-05-20T08:37:16.647Z,14.90
2019-05-20T08:39:45.543Z,15.03
2019-05-20T08:42:13.829Z,15.70
2019-05-20T08:44:41.842Z,17.57
2019-05-20T08:47:09.899Z,17.77
2019-05-20T08:49:38.389Z,14.13
2019-05-20T08:52:07.824Z,13.57
2019-05-20T08:54:39.944Z,13.53
2019-05-20T08:57:05.861Z,14.40
2019-05-20T08:59:34.166Z,13.87
2019-05-20T09:02:02.576Z,13.73
2019-05-20T09:04:30.658Z,14.60
2019-05-20T09:06:58.883Z,13.40
2019-05-20T09:09:27.502Z,12.93
2019-05-20T09:11:56.226Z,13.13
2019-05-20T09:14:24.318Z,14.27
2019-05-20T09:16:52.353Z,13.07
2019-05-20T09:19:20.560Z,13.50
2019-05-20T09:21:48.673Z,13.80
2019-05-20T09:24:18.953Z,13.37
2019-05-20T09:26:47.220Z,14.53
2019-05-20T09:29:15.319Z,15.63
2019-05-20T09:31:43.578Z,13.87
2019-05-20T09:34:11.732Z,13.60
2019-05-20T09:36:39.989Z,12.87
2019-05-20T09:39:08.341Z,13.70
2019-05-20T09:41:36.575Z,13.73
2019-05-20T09:44:05.006Z,13.77
2019-05-20T09:46:33.179Z,12.70
2019-05-20T09:49:01.440Z,13.30
2019-05-20T09:51:29.619Z,12.80
2019-05-20T09:53:57.833Z,14.50
2019-05-20T09:56:25.899Z,13.63
2019-05-20T09:58:54.030Z,13.97
2019-05-20T10:01:22.252Z,13.70
2019-05-20T10:03:50.801Z,12.90
2019-05-20T10:06:19.195Z,14.07
2019-05-20T10:08:47.356Z,13.60
2019-05-20T10:11:16.696Z,13.37
2019-05-20T10:13:45.872Z,13.10
2019-05-20T10:16:13.951Z,12.80
2019-05-20T10:18:42.152Z,13.00
2019-05-20T10:21:10.185Z,13.23
2019-05-20T10:23:38.262Z,13.30
2019-05-20T10:26:06.658Z,14.97
2019-05-20T10:28:34.683Z,13.57
2019-05-20T10:31:02.910Z,15.13
2019-05-20T10:33:31.044Z,13.30
2019-05-20T10:35:59.169Z,14.03
2019-05-20T10:38:27.324Z,13.97
2019-05-20T10:40:55.413Z,13.90
2019-05-20T10:43:23.488Z,13.70
2019-05-20T10:45:51.586Z,14.67
2019-05-20T10:48:19.953Z,14.80
2019-05-20T10:50:48.219Z,17.07
2019-05-20T10:53:16.630Z,14.95
2019-05-20T10:55:45.073Z,15.93
2019-05-20T10:58:13.202Z,15.23
2019-05-20T11:01:01.062Z,15.80
2019-05-20T11:03:13.072Z,17.80
2019-05-20T11:05:41.220Z,15.83
2019-05-20T11:08:09.406Z,15.87
2019-05-20T11:10:37.930Z,17.30
2019-05-20T11:13:06.050Z,18.63
2019-05-20T11:15:34.456Z,17.20
2019-05-20T11:18:02.770Z,17.10
2019-05-20T11:20:30.933Z,15.87
2019-05-20T11:23:01.214Z,16.00
2019-05-20T11:25:29.068Z,15.60
2019-05-20T11:27:57.098Z,16.73
2019-05-20T11:30:25.385Z,15.03
2019-05-20T11:32:53.469Z,16.77
2019-05-20T11:35:21.687Z,14.83
2019-05-20T11:37:49.792Z,15.87
2019-05-20T11:40:18.400Z,14.03
2019-05-20T11:42:46.544Z,17.73
2019-05-20T11:45:16.472Z,14.77
2019-05-20T11:47:44.678Z,14.33
2019-05-20T11:50:16.800Z,13.73
2019-05-20T11:52:45.848Z,14.30
2019-05-20T11:55:14.595Z,15.10
2019-05-20T11:57:43.000Z,15.00
2019-05-20T12:00:13.018Z,14.37
2019-05-20T12:02:41.353Z,15.27
2019-05-20T12:05:09.754Z,14.63
2019-05-20T12:07:38.058Z,14.37
2019-05-20T12:10:08.431Z,14.47
2019-05-20T12:12:37.067Z,16.53
2019-05-20T12:15:07.094Z,14.53
2019-05-20T12:17:36.072Z,14.77
2019-05-20T12:20:06.143Z,15.07
2019-05-20T12:22:35.055Z,13.70
2019-05-20T12:25:03.374Z,14.90
2019-05-20T12:27:31.490Z,13.73
2019-05-20T12:29:59.547Z,16.07
2019-05-20T12:32:27.643Z,15.33
2019-05-20T12:34:56.085Z,14.60
2019-05-20T12:37:24.339Z,16.57
2019-05-20T12:40:05.902Z,15.08
2019-05-20T12:42:22.739Z,15.63
2019-05-20T12:44:51.396Z,14.40
2019-05-20T12:47:19.632Z,13.83
2019-05-20T12:49:47.715Z,14.53
2019-05-20T12:52:15.782Z,14.30
2019-05-20T12:54:43.882Z,14.80
2019-05-20T12:57:12.015Z,15.03
2019-05-20T12:59:40.067Z,13.00
2019-05-20T13:02:08.256Z,13.63
2019-05-20T13:04:36.705Z,14.23
2019-05-20T13:07:04.979Z,15.47
2019-05-20T13:09:33.108Z,13.48
2019-05-20T13:12:01.464Z,14.43
2019-05-20T13:14:31.237Z,14.63
2019-05-20T13:17:00.733Z,12.17
2019-05-20T13:19:29.158Z,14.30
2019-05-20T13:21:57.387Z,13.60
2019-05-20T13:24:25.820Z,16.42
2019-05-20T13:26:54.020Z,15.48
2019-05-20T13:29:22.153Z,13.83
2019-05-20T13:31:50.533Z,15.20
2019-05-20T13:34:19.665Z,13.90
2019-05-20T13:36:47.705Z,14.35
2019-05-20T13:39:15.775Z,17.12
2019-05-20T13:41:44.112Z,15.47
2019-05-20T13:44:12.244Z,16.03
2019-05-20T13:46:40.360Z,15.40
2019-05-20T13:49:08.475Z,15.13
2019-05-20T13:51:38.719Z,16.42
2019-05-20T13:54:07.423Z,15.90
2019-05-20T13:56:35.830Z,16.30
2019-05-20T13:59:04.059Z,16.25
2019-05-20T14:01:33.247Z,16.85
2019-05-20T14:04:01.627Z,17.50
2019-05-20T14:06:29.936Z,17.42
2019-05-20T14:08:58.100Z,17.20
2019-05-20T14:11:34.062Z,18.10
2019-05-20T14:13:56.448Z,17.33
2019-05-20T14:16:24.740Z,14.93
2019-05-20T14:18:54.132Z,17.40
2019-05-20T14:21:22.425Z,18.63
2019-05-20T14:23:50.630Z,16.82
2019-05-20T14:26:19.004Z,18.70
2019-05-20T14:28:48.743Z,17.98
2019-05-20T14:31:16.930Z,16.90
2019-05-20T14:33:45.151Z,15.95
2019-05-20T14:36:35.934Z,19.73
2019-05-20T14:38:43.495Z,15.10
2019-05-20T14:41:20.849Z,14.38
2019-05-20T14:43:41.728Z,18.40
2019-05-20T14:46:10.061Z,16.70
2019-05-20T14:48:38.264Z,15.77
2019-05-20T14:51:06.557Z,17.25
2019-05-20T14:53:34.892Z,15.40
2019-05-20T14:56:03.309Z,16.93
2019-05-20T14:58:31.832Z,15.25
2019-05-20T15:01:01.892Z,14.40
2019-05-20T15:03:30.598Z,18.35
2019-05-20T15:05:59.862Z,15.85
2019-05-20T15:08:28.180Z,15.55
2019-05-20T15:10:56.303Z,14.90
2019-05-20T15:13:25.142Z,15.43
2019-05-20T15:15:53.416Z,17.73
2019-05-20T15:18:22.126Z,14.20
2019-05-20T15:20:50.353Z,15.15
2019-05-20T15:23:18.556Z,15.90
2019-05-20T15:25:49.546Z,15.13
2019-05-20T15:28:17.978Z,17.42
2019-05-20T15:30:46.358Z,15.88
2019-05-20T15:33:14.595Z,15.77
2019-05-20T15:35:42.845Z,18.35
2019-05-20T15:38:10.933Z,16.55
2019-05-20T15:40:38.999Z,15.88
2019-05-20T15:43:07.135Z,16.53
2019-05-20T15:45:35.468Z,13.98
2019-05-20T15:48:03.547Z,16.37
2019-05-20T15:50:31.653Z,14.15
2019-05-20T15:52:59.850Z,14.70
2019-05-20T15:55:28.156Z,14.20
2019-05-20T15:57:56.196Z,13.95
2019-05-20T16:00:24.323Z,14.95
2019-05-20T16:02:52.467Z,15.00
2019-05-20T16:05:20.595Z,14.78
2019-05-20T16:07:48.917Z,15.25
2019-05-20T16:10:17.146Z,15.72
2019-05-20T16:12:45.293Z,13.83
2019-05-20T16:15:13.908Z,13.10
2019-05-20T16:17:42.183Z,13.45
2019-05-20T16:20:10.535Z,13.50
2019-05-20T16:22:38.825Z,13.40
2019-05-20T16:25:07.677Z,13.30
2019-05-20T16:27:36.838Z,13.00
2019-05-20T16:30:07.336Z,13.20
2019-05-20T16:32:35.946Z,12.43
2019-05-20T16:35:05.233Z,15.48
2019-05-20T16:37:34.497Z,12.65
2019-05-20T16:40:03.807Z,12.75
2019-05-20T16:42:32.194Z,13.32
2019-05-20T16:45:00.220Z,13.98
2019-05-20T16:47:28.453Z,14.80
2019-05-20T16:49:56.544Z,13.08
2019-05-20T16:52:24.574Z,13.20
2019-05-20T16:54:52.729Z,12.98
2019-05-20T16:57:20.874Z,12.95
2019-05-20T16:59:49.043Z,12.03
2019-05-20T17:02:17.375Z,12.37
2019-05-20T17:04:45.535Z,12.37
2019-05-20T17:07:13.613Z,11.73
2019-05-20T17:09:41.795Z,11.68
2019-05-20T17:12:09.863Z,12.35
2019-05-20T17:14:37.983Z,11.97
2019-05-20T17:17:06.286Z,11.43
2019-05-20T17:19:34.377Z,11.12
2019-05-20T17:22:02.553Z,10.68
2019-05-20T17:24:31.247Z,11.63
2019-05-20T17:26:59.493Z,14.00
2019-05-20T17:29:27.788Z,10.80
2019-05-20T17:31:56.010Z,10.55
2019-05-20T17:34:24.282Z,13.28
2019-05-20T17:36:52.528Z,12.15
2019-05-20T17:39:20.722Z,11.85
2019-05-20T17:41:48.777Z,12.13
2019-05-20T17:44:17.018Z,10.78
2019-05-20T17:46:45.049Z,11.45
2019-05-20T17:49:14.294Z,11.03
2019-05-20T17:51:43.382Z,12.50
2019-05-20T17:54:11.701Z,11.33
2019-05-20T17:56:39.938Z,11.88
2019-05-20T17:59:08.115Z,10.48
2019-05-20T18:01:36.326Z,11.50
2019-05-20T18:04:04.793Z,11.57
2019-05-20T18:06:32.989Z,11.45
2019-05-20T18:09:02.238Z,10.43
2019-05-20T18:11:32.449Z,11.93
2019-05-20T18:14:00.647Z,16.90
2019-05-20T18:16:28.991Z,11.68
2019-05-20T18:18:57.218Z,11.85
2019-05-20T18:21:25.332Z,11.68
2019-05-20T18:23:53.574Z,11.77
2019-05-20T18:26:21.618Z,10.77
2019-05-20T18:28:49.908Z,12.90
2019-05-20T18:31:31.277Z,11.60
2019-05-20T18:33:48.030Z,11.80
2019-05-20T18:36:16.312Z,12.88
2019-05-20T18:38:49.190Z,11.65
2019-05-20T18:41:15.569Z,15.85
2019-05-20T18:43:43.654Z,11.57
2019-05-20T18:46:11.717Z,12.73
2019-05-20T18:48:40.017Z,15.97
2019-05-20T18:51:08.571Z,12.23
2019-05-20T18:53:36.907Z,13.23
2019-05-20T18:56:05.231Z,11.67
2019-05-20T18:58:33.705Z,12.53
2019-05-20T19:01:02.025Z,10.55
2019-05-20T19:03:30.462Z,11.90
2019-05-20T19:05:58.679Z,11.53
2019-05-20T19:08:26.759Z,12.37
2019-05-20T19:10:56.086Z,10.88
2019-05-20T19:13:24.227Z,12.88
2019-05-20T19:15:52.458Z,12.00
2019-05-20T19:18:20.785Z,13.53
2019-05-20T19:20:49.134Z,13.58
2019-05-20T19:23:17.394Z,13.63
2019-05-20T19:25:45.508Z,13.90
2019-05-20T19:28:13.671Z,13.57
2019-05-20T19:30:41.965Z,13.15
2019-05-20T19:33:10.039Z,12.57
2019-05-20T19:35:39.413Z,12.47
2019-05-20T19:38:07.693Z,11.83
2019-05-20T19:40:36.089Z,11.33
2019-05-20T19:43:04.435Z,12.03
2019-05-20T19:45:32.636Z,10.88
2019-05-20T19:48:00.903Z,12.17
2019-05-20T19:50:28.953Z,12.27
2019-05-20T19:52:57.069Z,12.15
2019-05-20T19:55:25.271Z,12.60
2019-05-20T19:57:53.443Z,12.68
2019-05-20T20:00:21.728Z,12.75
2019-05-20T20:02:49.817Z,11.20
2019-05-20T20:05:18.068Z,11.65
2019-05-20T20:07:46.308Z,14.53
2019-05-20T20:10:14.702Z,12.05
2019-05-20T20:12:42.948Z,11.30
2019-05-20T20:15:17.334Z,10.90
2019-05-20T20:17:45.704Z,12.17
2019-05-20T20:20:15.050Z,11.77
2019-05-20T20:22:43.394Z,9.80
2019-05-20T20:25:11.827Z,10.20
2019-05-20T20:27:40.022Z,8.80
2019-05-20T20:30:08.715Z,8.90
2019-05-20T20:32:38.663Z,7.80
2019-05-20T20:35:07.547Z,8.57
2019-05-20T20:37:35.608Z,7.80
2019-05-20T20:40:03.987Z,7.47
2019-05-20T20:42:35.723Z,7.42
2019-05-20T20:45:05.147Z,7.10
2019-05-20T20:47:41.141Z,6.67
2019-05-20T20:50:03.951Z,6.50
2019-05-20T20:52:32.615Z,6.57
2019-05-20T20:55:00.989Z,6.53
2019-05-20T20:57:29.522Z,5.73
2019-05-20T20:59:57.736Z,6.37
2019-05-20T21:02:25.893Z,6.90
2019-05-20T21:04:53.990Z,6.27
2019-05-20T21:07:22.050Z,6.40
2019-05-20T21:09:50.522Z,7.27
2019-05-20T21:12:18.709Z,8.00
2019-05-20T21:14:47.126Z,5.70
2019-05-20T21:17:15.173Z,6.33
2019-05-20T21:19:43.332Z,5.80
2019-05-20T21:22:12.018Z,5.70
2019-05-20T21:24:40.275Z,6.20
2019-05-20T21:27:08.699Z,6.80
2019-05-20T21:29:37.012Z,5.97
2019-05-20T21:32:05.491Z,7.03
2019-05-20T21:34:34.887Z,6.17
2019-05-20T21:37:03.177Z,5.77
2019-05-20T21:39:31.397Z,5.80
2019-05-20T21:41:59.457Z,5.23
2019-05-20T21:44:27.562Z,7.80
2019-05-20T21:46:56.304Z,6.27
2019-05-20T21:49:25.738Z,5.70
2019-05-20T21:51:54.184Z,5.50
2019-05-20T21:54:22.845Z,6.53
2019-05-20T21:56:51.074Z,6.08
2019-05-20T21:59:19.141Z,5.27
2019-05-20T22:01:47.324Z,5.40
2019-05-20T22:04:15.423Z,5.60
2019-05-20T22:06:43.654Z,5.83
2019-05-20T22:09:11.760Z,5.70
2019-05-20T22:11:40.048Z,8.13
2019-05-20T22:14:08.311Z,5.77
2019-05-20T22:16:36.724Z,6.60
2019-05-20T22:19:05.030Z,6.03
2019-05-20T22:21:39.799Z,6.63
2019-05-20T22:24:07.893Z,5.97
2019-05-20T22:26:36.060Z,6.10
2019-05-20T22:29:04.118Z,7.07
2019-05-20T22:31:32.178Z,5.87
2019-05-20T22:34:00.281Z,5.83
2019-05-20T22:36:28.440Z,6.30
2019-05-20T22:38:56.531Z,5.70
2019-05-20T22:41:24.603Z,6.53
2019-05-20T22:43:52.850Z,5.80
2019-05-20T22:46:20.974Z,5.93
2019-05-20T22:48:49.183Z,6.87
2019-05-20T22:51:17.589Z,6.50
2019-05-20T22:53:45.769Z,6.73
2019-05-20T22:56:13.842Z,6.50
2019-05-20T22:58:41.908Z,5.73
2019-05-20T23:01:10.091Z,7.37
2019-05-20T23:03:38.164Z,6.00
2019-05-20T23:06:06.316Z,6.50
2019-05-20T23:08:34.414Z,6.63
2019-05-20T23:11:02.578Z,6.93
2019-05-20T23:13:30.616Z,6.50
2019-05-20T23:15:58.711Z,6.63
2019-05-20T23:18:26.736Z,6.83
2019-05-20T23:20:54.803Z,6.70
2019-05-20T23:23:22.881Z,6.80
2019-05-20T23:25:52.791Z,6.63
2019-05-20T23:28:20.968Z,7.30
2019-05-20T23:30:49.120Z,7.23
2019-05-20T23:33:17.146Z,7.40
2019-05-20T23:35:45.285Z,7.63
2019-05-20T23:38:13.480Z,9.30
2019-05-20T23:40:41.720Z,7.80
2019-05-20T23:43:10.832Z,7.47
2019-05-20T23:45:39.030Z,6.63
2019-05-20T23:48:08.036Z,6.90
2019-05-20T23:50:36.280Z,6.80
2019-05-20T23:53:04.574Z,7.70
2019-05-20T23:55:32.860Z,6.60
2019-05-20T23:58:01.184Z,6.73
